Time;durP1;ratioP1;P1;durP2;ratioP2;P2;SDS_P1;SDS_P2;PMS_P1;PMS_P2;Temp;Humidity;BMP_temperature;BMP_pressure;BME280_temperature;BME280_humidity;BME280_pressure;Samples;Min_cycle;Max_cycle;Signal;HPM_P1;HPM_P2
2023/10/02 00:01:06;;;;;;;8.30;3.70;;;;;;;12.34;68.85;99729.45;106629;1267;72249;-40
2023/10/02 00:03:39;;;;;;;12.30;4.40;;;;;;;12.34;69.08;99730.93;106713;1270;67622;-40
2023/10/02 00:06:16;;;;;;;9.40;4.10;;;;;;;12.35;69.01;99733.73;106568;1265;173598;-40
2023/10/02 00:08:49;;;;;;;9.20;3.50;;;;;;;12.36;69.14;99735.30;106842;1264;59366;-40
2023/10/02 00:11:41;;;;;;;13.00;4.30;;;;;;;12.35;69.02;99735.74;106727;1264;60093;-40
2023/10/02 00:14:19;;;;;;;11.00;3.90;;;;;;;12.30;69.06;99736.13;106749;1263;71003;-40
2023/10/02 00:17:00;;;;;;;8.50;4.50;;;;;;;12.26;69.15;99736.44;106717;1266;67875;-40
2023/10/02 00:19:29;;;;;;;19.30;5.20;;;;;;;12.25;69.06;99733.48;106678;1266;72724;-40
2023/10/02 00:21:59;;;;;;;9.90;4.40;;;;;;;12.27;69.13;99728.23;106713;1264;61725;-40
2023/10/02 00:24:27;;;;;;;;;;;;;;;12.26;69.19;99726.27;106797;1266;59771;-40
2023/10/02 00:26:58;;;;;;;11.40;4.60;;;;;;;12.22;69.24;99726.05;106692;1263;73075;-40
2023/10/02 00:29:26;;;;;;;10.60;4.50;;;;;;;12.18;69.51;99721.47;106773;1260;66447;-40
2023/10/02 00:31:54;;;;;;;11.20;4.80;;;;;;;12.15;69.57;99724.53;106808;1261;72767;-40
2023/10/02 00:34:32;;;;;;;12.10;4.70;;;;;;;12.15;69.52;99730.11;106844;1261;59369;-40
2023/10/02 00:37:09;;;;;;;11.10;4.20;;;;;;;12.15;69.47;99735.33;106912;1261;60043;-40
2023/10/02 00:39:36;;;;;;;9.70;4.40;;;;;;;12.17;69.45;99733.88;107231;1256;73029;-40
2023/10/02 00:42:10;;;;;;;13.00;5.00;;;;;;;12.17;69.44;99735.36;107244;1257;67610;-40
2023/10/02 00:44:54;;;;;;;11.50;5.10;;;;;;;12.16;69.58;99735.02;107197;1258;72695;-40
2023/10/02 00:47:42;;;;;;;13.80;5.70;;;;;;;12.13;69.73;99738.48;107154;1261;59746;-40
2023/10/02 00:50:17;;;;;;;12.30;4.60;;;;;;;12.07;69.90;99738.11;107200;1258;60032;-40
2023/10/02 00:52:49;;;;;;;12.50;4.70;;;;;;;12.00;70.08;99739.33;106968;1262;72384;-40
2023/10/02 00:55:20;;;;;;;9.00;4.30;;;;;;;11.98;70.06;99735.77;107197;1257;67991;-40
2023/10/02 00:57:52;;;;;;;12.10;4.50;;;;;;;11.99;70.13;99738.27;107054;1257;72674;-40
2023/10/02 01:00:20;;;;;;;10.50;3.90;;;;;;;11.95;70.24;99739.84;107205;1257;59567;-40
2023/10/02 01:02:57;;;;;;;8.80;4.50;;;;;;;11.89;70.38;99740.19;107220;1257;59663;-40
2023/10/02 01:05:41;;;;;;;12.80;4.60;;;;;;;11.84;70.51;99742.02;107217;1257;73081;-40
2023/10/02 01:08:23;;;;;;;10.90;4.20;;;;;;;11.76;70.68;99737.75;107158;1257;67916;-40
2023/10/02 01:10:59;;;;;;;12.30;4.50;;;;;;;11.71;70.96;99738.24;107029;1257;72756;-40
2023/10/02 01:13:28;;;;;;;13.00;4.80;;;;;;;11.69;70.90;99739.98;107100;1258;60684;-40
2023/10/02 01:15:56;;;;;;;9.30;4.20;;;;;;;11.66;70.99;99742.27;107194;1257;60192;-40
2023/10/02 01:18:27;;;;;;;13.90;5.20;;;;;;;11.64;71.05;99742.90;107253;1257;73502;-40
2023/10/02 01:20:56;;;;;;;12.50;5.60;;;;;;;11.61;71.37;99746.34;107263;1257;67673;-40
2023/10/02 01:23:28;;;;;;;9.00;4.70;;;;;;;11.54;71.80;99743.46;107317;1257;72660;-40
2023/10/02 01:26:00;;;;;;;9.90;4.90;;;;;;;11.47;72.22;99740.92;106853;1260;60893;-40
2023/10/02 01:28:51;;;;;;;11.50;4.90;;;;;;;11.46;72.49;99742.63;107148;1257;60102;-40
2023/10/02 01:31:31;;;;;;;10.90;4.20;;;;;;;11.50;72.42;99741.39;107096;1257;73099;-40
2023/10/02 01:33:59;;;;;;;;;;;;;;;11.50;72.50;99740.81;107156;1257;67650;-40
2023/10/02 01:36:31;;;;;;;13.30;5.20;;;;;;;11.46;72.66;99742.30;107189;1257;72723;-39
2023/10/02 01:38:59;;;;;;;8.80;4.30;;;;;;;11.44;72.78;99742.39;107184;1260;59630;-40
2023/10/02 01:41:27;;;;;;;10.40;4.40;;;;;;;11.41;72.74;99748.63;107240;1257;59496;-39
2023/10/02 01:43:56;;;;;;;11.10;3.90;;;;;;;11.41;72.83;99746.38;107227;1257;71937;-39
2023/10/02 01:46:25;;;;;;;11.30;4.00;;;;;;;11.41;72.67;99740.70;107083;1257;66773;-40
2023/10/02 01:48:53;;;;;;;10.70;3.90;;;;;;;11.55;72.55;99748.52;107159;1257;72707;-40
2023/10/02 01:51:28;;;;;;;13.00;4.10;;;;;;;11.62;72.18;99750.39;107151;1257;60094;-40
2023/10/02 01:53:56;;;;;;;11.20;3.80;;;;;;;11.66;71.90;99748.30;107238;1257;60058;-39
2023/10/02 01:56:29;;;;;;;12.40;4.00;;;;;;;11.68;71.56;99753.77;107241;1257;73546;-40
2023/10/02 01:59:11;;;;;;;10.20;4.30;;;;;;;11.68;71.32;99753.92;107020;1257;66707;-39
2023/10/02 02:01:46;;;;;;;10.90;4.10;;;;;;;11.65;71.13;99754.11;107023;1264;71393;-39
2023/10/02 02:04:19;;;;;;;13.00;4.10;;;;;;;11.57;71.22;99752.84;107027;1263;61801;-39
2023/10/02 02:06:54;;;;;;;13.50;4.50;;;;;;;11.50;71.45;99756.20;107260;1257;60063;-39
2023/10/02 02:09:27;;;;;;;8.60;3.90;;;;;;;11.47;71.78;99757.45;107043;1257;73067;-39
2023/10/02 02:12:07;;;;;;;11.30;3.90;;;;;;;11.46;71.83;99760.84;107511;1254;67554;-39
2023/10/02 02:14:51;;;;;;;13.60;4.40;;;;;;;11.43;72.16;99760.92;107530;1254;72707;-40
2023/10/02 02:17:22;;;;;;;9.20;4.00;;;;;;;11.34;72.30;99764.91;107522;1254;59627;-39
2023/10/02 02:19:55;;;;;;;9.20;3.80;;;;;;;11.23;72.47;99763.89;107453;1254;60136;-39
2023/10/02 02:22:25;;;;;;;12.50;4.50;;;;;;;11.16;72.89;99765.36;107519;1253;70782;-39
2023/10/02 02:24:54;;;;;;;9.20;4.00;;;;;;;11.15;72.95;99768.73;107433;1254;66344;-39
2023/10/02 02:27:22;;;;;;;11.70;4.40;;;;;;;11.14;72.99;99764.84;107398;1254;71505;-40
2023/10/02 02:29:54;;;;;;;15.00;4.60;;;;;;;11.16;73.28;99767.75;107373;1255;59125;-40
2023/10/02 02:32:36;;;;;;;10.40;4.10;;;;;;;11.18;73.38;99770.61;107307;1254;59900;-39
2023/10/02 02:35:06;;;;;;;11.30;4.40;;;;;;;11.18;73.45;99772.54;107356;1259;73037;-39
2023/10/02 02:37:34;;;;;;;12.60;4.50;;;;;;;11.16;73.43;99770.85;107553;1253;67572;-40
2023/10/02 02:42:52;;;;;;;9.00;4.00;;;;;;;11.09;73.49;99774.50;107463;1254;60418;-40
2023/10/02 02:45:31;;;;;;;10.30;4.10;;;;;;;11.13;73.39;99773.42;107517;1254;60040;-40
2023/10/02 02:48:04;;;;;;;12.10;4.10;;;;;;;11.12;73.50;99773.27;107527;1254;73052;-40
2023/10/02 02:50:41;;;;;;;9.60;4.60;;;;;;;11.06;73.78;99769.46;107535;1254;67136;-40
2023/10/02 02:53:21;;;;;;;13.90;4.30;;;;;;;11.01;73.85;99765.48;107499;1254;72678;-41
2023/10/02 02:56:14;;;;;;;12.40;3.90;;;;;;;11.01;74.11;99768.73;107479;1254;61738;-40
2023/10/02 02:58:48;;;;;;;12.50;4.10;;;;;;;11.02;74.07;99762.33;107546;1254;60159;-40
2023/10/02 03:01:21;;;;;;;9.10;4.00;;;;;;;11.03;74.15;99764.29;107559;1254;73110;-41
2023/10/02 03:04:11;;;;;;;10.80;4.40;;;;;;;11.04;74.18;99764.30;107557;1254;68359;-41
2023/10/02 03:06:42;;;;;;;9.70;4.50;;;;;;;11.08;74.27;99770.14;107526;1259;72640;-40
2023/10/02 03:09:09;;;;;;;11.10;4.10;;;;;;;11.12;74.37;99770.53;107499;1254;60071;-41
2023/10/02 03:11:38;;;;;;;8.30;4.30;;;;;;;11.14;74.33;99769.51;107526;1254;60209;-40
2023/10/02 03:14:16;;;;;;;10.80;4.10;;;;;;;11.19;74.03;99772.33;107493;1258;72010;-40
2023/10/02 03:16:47;;;;;;;11.70;3.80;;;;;;;11.22;73.95;99771.08;107501;1259;67146;-41
2023/10/02 03:19:16;;;;;;;10.50;4.70;;;;;;;11.23;73.97;99771.73;107492;1259;72712;-40
2023/10/02 03:21:44;;;;;;;10.90;4.30;;;;;;;11.21;74.16;99769.84;107511;1253;60083;-40
2023/10/02 03:24:18;;;;;;;12.50;4.30;;;;;;;11.20;74.24;99769.80;107492;1253;59573;-40
2023/10/02 03:26:52;;;;;;;12.40;4.50;;;;;;;11.17;74.43;99772.84;107515;1259;71387;-40
2023/10/02 03:29:22;;;;;;;11.90;4.20;;;;;;;11.15;74.35;99771.62;107513;1259;67569;-40
2023/10/02 03:31:50;;;;;;;7.70;3.50;;;;;;;11.15;74.41;99768.66;107527;1259;72711;-40
2023/10/02 03:34:30;;;;;;;8.70;4.20;;;;;;;11.14;74.57;99770.73;107505;1258;60788;-40
2023/10/02 03:42:22;;;;;;;15.60;5.30;;;;;;;11.08;74.79;99775.40;107509;1259;67551;-40
2023/10/02 03:44:54;;;;;;;15.00;4.60;;;;;;;11.02;75.05;99776.03;107508;1260;72680;-41
2023/10/02 03:47:23;;;;;;;13.10;4.50;;;;;;;11.01;75.06;99774.02;107490;1254;60708;-40
2023/10/02 03:49:50;;;;;;;10.60;4.40;;;;;;;11.02;75.12;99781.31;107485;1254;60045;-40
2023/10/02 03:52:18;;;;;;;12.00;4.80;;;;;;;11.04;75.27;99779.25;107489;1253;73075;-40
2023/10/02 03:54:46;;;;;;;13.10;4.70;;;;;;;11.02;75.55;99776.59;107487;1254;66300;-40
2023/10/02 04:00:17;;;;;;;11.00;4.30;;;;;;;10.92;75.90;99777.28;107480;1254;60200;-40
2023/10/02 04:02:50;;;;;;;10.50;4.10;;;;;;;10.87;76.08;99779.34;107480;1258;60025;-40
2023/10/02 04:05:42;;;;;;;13.90;4.90;;;;;;;10.86;76.11;99776.45;107541;1254;71830;-40
2023/10/02 04:08:21;;;;;;;14.00;4.40;;;;;;;10.86;76.29;99782.80;107495;1258;67939;-40
2023/10/02 04:10:57;;;;;;;11.90;4.50;;;;;;;10.84;76.34;99782.36;107480;1259;72740;-40
2023/10/02 04:13:33;;;;;;;13.90;4.90;;;;;;;10.81;76.61;99781.52;107605;1254;60559;-40
2023/10/02 04:18:49;;;;;;;12.60;4.60;;;;;;;10.72;77.13;99784.46;107609;1254;73893;-40
2023/10/02 04:21:25;;;;;;;11.00;4.50;;;;;;;10.73;77.42;99792.08;107475;1254;66755;-40
2023/10/02 04:23:53;;;;;;;9.40;4.60;;;;;;;10.77;77.38;99788.55;107462;1258;72717;-40
2023/10/02 04:26:22;;;;;;;14.30;4.60;;;;;;;10.83;77.46;99791.40;107473;1254;60305;-40
2023/10/02 04:28:58;;;;;;;10.60;3.90;;;;;;;10.84;77.45;99798.25;107537;1253;60112;-40
2023/10/02 04:31:34;;;;;;;13.20;4.40;;;;;;;10.84;77.47;99798.94;107478;1254;73062;-41
2023/10/02 04:36:48;;;;;;;7.90;3.90;;;;;;;10.91;77.32;99805.23;107460;1254;71358;-40
2023/10/02 04:42:12;;;;;;;8.70;4.10;;;;;;;10.99;77.01;99813.57;107551;1259;60358;-40
2023/10/02 04:44:56;;;;;;;10.60;4.20;;;;;;;10.99;77.08;99813.17;107504;1254;73854;-40
2023/10/02 04:47:30;;;;;;;11.00;4.50;;;;;;;10.97;77.14;99815.63;107488;1259;67592;-40
2023/10/02 04:55:41;;;;;;;13.10;4.30;;;;;;;11.02;77.25;99820.85;107485;1253;60441;-40
2023/10/02 04:58:19;;;;;;;9.90;4.10;;;;;;;11.07;77.37;99824.38;107491;1254;73931;-40
2023/10/02 05:03:35;;;;;;;11.50;4.40;;;;;;;11.13;77.52;99829.02;107487;1259;72708;-40
2023/10/02 05:06:04;;;;;;;12.80;4.30;;;;;;;11.13;77.63;99834.91;107561;1254;61724;-40
2023/10/02 05:09:19;;;;;;;13.10;3.70;;;;;;;11.16;77.46;99839.64;107465;1254;60473;-40
2023/10/02 05:11:24;;;;;;;11.60;4.00;;;;;;;11.22;77.37;99842.88;107478;1259;73795;-40
2023/10/02 05:16:29;;;;;;;12.00;4.50;;;;;;;11.29;77.50;99846.14;107648;1254;72668;-40
2023/10/02 05:18:57;;;;;;;10.70;3.90;;;;;;;11.30;77.58;99850.20;107359;1260;60533;-40
2023/10/02 05:24:12;;;;;;;9.80;4.20;;;;;;;11.39;77.54;99850.19;107448;1260;73827;-40
2023/10/02 05:26:41;;;;;;;12.00;4.20;;;;;;;11.47;77.50;99852.23;107471;1260;67594;-40
2023/10/02 05:32:19;;;;;;;13.00;4.30;;;;;;;11.52;77.38;99852.04;107509;1259;60332;-41
2023/10/02 05:35:16;;;;;;;10.30;4.20;;;;;;;11.52;77.45;99849.95;107540;1255;60677;-40
2023/10/02 05:37:45;;;;;;;10.80;4.60;;;;;;;11.51;77.53;99853.73;107484;1254;72572;-41
2023/10/02 05:48:27;;;;;;;11.30;4.10;;;;;;;11.54;77.70;99865.13;107546;1253;60420;-40
2023/10/02 05:51:09;;;;;;;13.50;5.10;;;;;;;11.50;77.85;99867.84;107513;1254;73838;-41
2023/10/02 05:53:37;;;;;;;11.60;4.30;;;;;;;11.50;78.09;99867.74;107509;1254;67602;-41
2023/10/02 05:56:05;;;;;;;9.70;4.30;;;;;;;11.60;78.18;99874.50;107474;1257;72714;-41
2023/10/02 05:58:35;;;;;;;15.70;4.40;;;;;;;11.75;77.98;99879.81;107551;1257;61659;-41
2023/10/02 06:01:04;;;;;;;9.10;4.40;;;;;;;11.87;78.00;99883.05;107612;1254;60674;-41
2023/10/02 06:03:36;;;;;;;7.10;3.50;;;;;;;11.96;77.75;99880.52;107568;1254;73834;-40
2023/10/02 06:06:15;;;;;;;12.30;4.20;;;;;;;12.03;77.68;99887.35;107461;1254;67587;-40
2023/10/02 06:08:48;;;;;;;11.30;4.30;;;;;;;12.07;77.59;99887.05;107497;1255;71763;-41
2023/10/02 06:11:35;;;;;;;11.60;3.90;;;;;;;12.14;77.15;99885.19;107463;1254;61868;-40
2023/10/02 06:14:10;;;;;;;11.70;4.10;;;;;;;12.21;76.98;99886.24;107508;1254;60416;-41
2023/10/02 06:16:44;;;;;;;8.90;3.90;;;;;;;12.28;77.07;99895.25;107474;1254;73959;-40
2023/10/02 06:19:15;;;;;;;13.20;4.40;;;;;;;12.33;77.11;99900.30;107564;1258;66759;-40
2023/10/02 06:21:47;;;;;;;11.50;3.90;;;;;;;12.36;77.08;99902.02;107507;1255;72900;-40
2023/10/02 06:24:18;;;;;;;11.60;4.70;;;;;;;12.44;76.89;99894.42;107480;1256;60723;-40
2023/10/02 06:26:49;;;;;;;9.60;4.10;;;;;;;12.66;76.32;99906.56;107513;1257;59616;-41
2023/10/02 06:29:22;;;;;;;12.60;4.70;;;;;;;12.72;75.72;99897.67;107472;1254;72616;-40
2023/10/02 06:31:58;;;;;;;10.30;4.00;;;;;;;12.75;75.54;99898.80;107504;1255;66718;-40
2023/10/02 06:34:39;;;;;;;13.40;4.10;;;;;;;12.80;75.42;99902.87;107520;1254;72782;-41
2023/10/02 06:37:07;;;;;;;13.10;4.50;;;;;;;12.87;74.67;99904.77;107503;1257;61701;-41
2023/10/02 06:39:35;;;;;;;10.00;4.20;;;;;;;12.91;74.21;99902.53;107507;1255;60040;-40
2023/10/02 06:42:16;;;;;;;10.10;4.40;;;;;;;12.91;74.44;99898.10;107507;1253;73887;-41
2023/10/02 06:44:54;;;;;;;11.00;4.50;;;;;;;12.94;74.42;99900.48;107515;1254;65887;-41
2023/10/02 06:47:23;;;;;;;10.10;3.70;;;;;;;12.96;74.71;99907.99;107488;1254;72807;-41
2023/10/02 06:49:52;;;;;;;12.90;4.20;;;;;;;13.06;74.37;99911.67;107538;1254;60516;-40
2023/10/02 06:52:20;;;;;;;9.30;3.90;;;;;;;13.15;73.85;99912.78;107539;1254;60607;-40
2023/10/02 06:54:56;;;;;;;13.40;4.10;;;;;;;13.19;73.54;99917.66;107486;1253;73851;-41
2023/10/02 06:57:26;;;;;;;14.80;4.50;;;;;;;13.18;73.59;99920.61;107535;1254;67869;-40
2023/10/02 06:59:54;;;;;;;9.90;3.60;;;;;;;13.19;73.39;99923.44;107490;1254;72504;-40
2023/10/02 07:02:26;;;;;;;11.60;4.60;;;;;;;13.19;73.15;99924.83;107472;1253;61665;-40
2023/10/02 07:04:56;;;;;;;11.10;4.30;;;;;;;13.22;73.05;99925.51;107526;1254;60388;-41
2023/10/02 07:07:28;;;;;;;11.80;4.10;;;;;;;13.31;73.13;99923.09;107508;1254;73923;-40
2023/10/02 07:10:18;;;;;;;13.20;4.30;;;;;;;13.39;73.05;99927.50;107538;1254;68217;-40
2023/10/02 07:12:45;;;;;;;11.30;4.60;;;;;;;13.48;73.02;99925.33;107490;1254;72680;-40
2023/10/02 07:15:20;;;;;;;10.60;4.30;;;;;;;13.58;72.58;99926.54;107479;1254;60496;-41
2023/10/02 07:17:48;;;;;;;8.90;3.90;;;;;;;13.67;72.12;99926.00;107503;1254;58910;-40
2023/10/02 07:20:20;;;;;;;10.70;4.40;;;;;;;13.77;71.87;99927.16;107538;1255;73830;-41
2023/10/02 07:22:49;;;;;;;13.00;5.20;;;;;;;13.83;71.25;99924.61;107543;1259;67774;-41
2023/10/02 07:25:20;;;;;;;11.20;4.90;;;;;;;13.84;71.19;99923.92;107559;1254;72455;-40
2023/10/02 07:27:48;;;;;;;11.40;4.40;;;;;;;13.89;71.25;99922.52;107463;1254;60082;-40
2023/10/02 07:30:26;;;;;;;11.20;4.10;;;;;;;13.96;71.17;99919.50;107489;1257;60434;-41
2023/10/02 07:33:03;;;;;;;10.30;4.00;;;;;;;14.07;70.88;99922.45;107486;1254;73875;-40
2023/10/02 07:35:33;;;;;;;13.80;4.20;;;;;;;14.20;70.60;99927.85;107492;1258;67892;-41
2023/10/02 07:38:01;;;;;;;11.30;3.80;;;;;;;14.28;70.16;99928.89;107494;1254;72649;-41
2023/10/02 07:40:48;;;;;;;11.10;4.40;;;;;;;14.33;70.12;99932.08;107452;1254;60335;-40
2023/10/02 07:43:21;;;;;;;12.40;4.20;;;;;;;14.40;69.75;99931.33;107513;1254;60569;-46
2023/10/02 07:46:01;;;;;;;14.20;4.70;;;;;;;14.43;69.59;99932.29;107520;1258;73861;-41
2023/10/02 07:48:36;;;;;;;12.80;4.40;;;;;;;14.48;69.46;99932.52;107517;1257;67941;-41
2023/10/02 07:51:06;;;;;;;12.20;4.20;;;;;;;14.60;69.46;99935.17;107505;1253;72734;-41
2023/10/02 07:53:40;;;;;;;14.40;4.30;;;;;;;14.72;69.11;99931.33;107504;1259;60323;-41
2023/10/02 07:56:14;;;;;;;10.00;4.30;;;;;;;14.82;68.38;99938.30;107511;1252;60115;-40
2023/10/02 07:58:43;;;;;;;8.60;4.10;;;;;;;14.89;67.97;99940.63;107561;1254;72651;-41
2023/10/02 08:01:12;;;;;;;10.80;3.40;;;;;;;14.94;67.88;99942.33;107514;1254;67591;-40
2023/10/02 08:03:44;;;;;;;11.40;4.10;;;;;;;15.00;67.47;99943.56;107390;1254;72732;-41
2023/10/02 08:06:23;;;;;;;13.00;4.00;;;;;;;15.06;66.86;99945.11;107485;1255;61750;-41
2023/10/02 08:11:41;;;;;;;11.80;4.40;;;;;;;15.33;66.47;99947.62;107494;1252;73970;-40
2023/10/02 08:14:34;;;;;;;10.70;3.80;;;;;;;15.41;65.98;99949.03;107561;1254;67700;-41
2023/10/02 08:16:59;;;;;;;12.50;3.80;;;;;;;15.52;65.28;99948.67;107507;1253;72673;-41
2023/10/02 08:19:28;;;;;;;10.90;4.00;;;;;;;15.58;65.21;99948.96;107504;1259;60553;-41
2023/10/02 08:21:56;;;;;;;12.10;4.20;;;;;;;15.65;64.80;99950.35;107489;1254;59587;-41
2023/10/02 08:24:23;;;;;;;10.00;4.10;;;;;;;15.71;64.06;99954.77;107507;1254;73922;-41
2023/10/02 08:26:56;;;;;;;11.70;3.90;;;;;;;15.74;63.54;99950.65;107499;1254;67942;-41
2023/10/02 08:29:26;;;;;;;11.00;3.90;;;;;;;15.83;62.62;99951.95;107549;1260;72497;-41
2023/10/02 08:31:54;;;;;;;13.10;4.30;;;;;;;15.93;62.65;99952.73;107477;1256;60131;-41
2023/10/02 08:34:26;;;;;;;11.80;3.90;;;;;;;16.00;62.00;99953.41;107505;1253;60479;-41
2023/10/02 08:37:07;;;;;;;11.30;4.30;;;;;;;16.07;61.80;99952.59;107480;1252;73873;-41
2023/10/02 08:39:39;;;;;;;11.90;5.90;;;;;;;16.17;61.68;99953.20;107511;1257;67879;-41
2023/10/02 08:42:10;;;;;;;8.90;4.30;;;;;;;16.28;60.83;99951.69;107511;1257;71883;-41
2023/10/02 08:44:40;;;;;;;11.30;4.30;;;;;;;16.35;60.09;99952.44;107551;1254;60417;-41
2023/10/02 08:47:27;;;;;;;9.40;4.20;;;;;;;16.41;60.23;99951.06;107507;1260;60342;-41
2023/10/02 08:50:04;;;;;;;10.90;4.20;;;;;;;16.48;59.11;99949.20;107513;1254;75713;-41
2023/10/02 08:52:38;;;;;;;10.50;3.90;;;;;;;16.53;59.25;99945.31;107495;1254;70255;-41
2023/10/02 08:55:36;;;;;;;9.60;3.90;;;;;;;16.59;58.75;99946.38;107509;1255;73188;-41
2023/10/02 08:58:16;;;;;;;11.70;4.00;;;;;;;16.67;57.69;99948.61;107526;1254;59786;-41
2023/10/02 09:01:17;;;;;;;8.90;3.90;;;;;;;16.72;57.87;99948.70;107518;1254;60329;-41
2023/10/02 09:04:21;;;;;;;9.10;4.20;;;;;;;16.77;57.63;99950.69;107461;1252;72877;-41
2023/10/02 09:06:53;;;;;;;8.90;4.50;;;;;;;16.79;57.72;99942.23;107532;1253;67662;-40
2023/10/02 09:09:26;;;;;;;13.40;5.30;;;;;;;16.93;57.62;99951.66;107545;1254;70465;-41
2023/10/02 09:11:57;;;;;;;14.10;6.50;;;;;;;17.04;57.10;99947.46;107502;1254;60602;-41
2023/10/02 09:17:18;;;;;;;13.80;5.70;;;;;;;17.28;55.56;99951.81;107536;1253;71731;-41
2023/10/02 09:19:49;;;;;;;11.10;5.10;;;;;;;17.37;54.17;99954.02;107538;1254;67586;-41
2023/10/02 09:22:17;;;;;;;9.80;4.80;;;;;;;17.43;53.46;99952.22;107508;1255;74905;-41
2023/10/02 09:25:09;;;;;;;8.60;4.30;;;;;;;17.49;53.74;99949.32;107511;1254;60552;-41
2023/10/02 09:27:41;;;;;;;17.30;5.10;;;;;;;17.58;53.82;99946.98;107645;1253;60470;-41
2023/10/02 09:30:15;;;;;;;14.00;5.10;;;;;;;17.70;52.65;99949.89;107489;1254;73804;-41
2023/10/02 09:32:49;;;;;;;10.10;5.00;;;;;;;17.75;51.66;99945.20;107472;1254;67750;-41
2023/10/02 09:35:42;;;;;;;10.40;5.00;;;;;;;17.73;51.31;99948.56;107573;1254;72654;-40
2023/10/02 09:38:32;;;;;;;8.20;4.30;;;;;;;17.66;50.81;99950.06;107512;1254;60123;-41
2023/10/02 09:43:32;;;;;;;9.20;4.80;;;;;;;17.69;51.24;99940.48;107504;1252;73802;-41
2023/10/02 09:46:06;;;;;;;11.30;4.90;;;;;;;17.81;50.94;99950.59;107498;1254;66081;-41
2023/10/02 09:49:03;;;;;;;10.30;4.90;;;;;;;17.88;49.56;99951.61;107514;1254;71378;-41
2023/10/02 09:52:10;;;;;;;11.60;4.80;;;;;;;17.85;49.97;99946.28;107464;1253;60743;-41
2023/10/02 09:55:10;;;;;;;10.80;4.70;;;;;;;17.87;50.03;99951.29;107515;1254;60540;-41
2023/10/02 09:57:48;;;;;;;9.50;5.10;;;;;;;17.95;49.44;99946.11;107388;1253;73014;-41
2023/10/02 10:00:37;;;;;;;9.70;4.10;;;;;;;18.02;48.99;99951.42;107502;1254;67610;-41
2023/10/02 10:03:22;;;;;;;8.00;3.90;;;;;;;18.09;47.53;99951.58;107511;1259;71504;-41
2023/10/02 10:06:06;;;;;;;7.30;4.10;;;;;;;18.11;47.26;99951.09;107498;1254;60453;-41
2023/10/02 10:11:42;;;;;;;10.10;4.50;;;;;;;17.92;47.99;99951.76;107502;1254;75979;-41
2023/10/02 10:14:39;;;;;;;6.90;4.10;;;;;;;17.87;48.24;99953.73;107514;1254;69928;-41
2023/10/02 10:17:16;;;;;;;14.00;6.90;;;;;;;17.81;48.07;99953.50;107505;1254;71970;-41
2023/10/02 10:20:40;;;;;;;13.10;7.40;;;;;;;17.71;48.88;99955.70;107476;1253;60486;-41
2023/10/02 10:22:50;;;;;;;9.20;4.80;;;;;;;17.62;49.06;99956.40;107423;1254;61365;-41
2023/10/02 10:28:08;;;;;;;11.50;4.80;;;;;;;17.48;49.71;99960.61;107513;1254;67532;-41
2023/10/02 10:30:39;;;;;;;11.00;5.20;;;;;;;17.59;49.89;99958.59;107518;1254;74784;-41
2023/10/02 10:35:49;;;;;;;8.00;4.10;;;;;;;18.04;48.29;99953.39;107507;1253;62857;-41
2023/10/02 10:38:29;;;;;;;6.90;4.30;;;;;;;18.33;47.54;99954.95;107546;1254;74200;-41
2023/10/02 10:41:00;;;;;;;12.00;4.10;;;;;;;18.62;47.19;99948.84;107504;1254;66592;-41
2023/10/02 10:44:13;;;;;;;10.10;5.00;;;;;;;18.86;45.93;99949.11;107501;1254;72654;-41
2023/10/02 10:46:27;;;;;;;9.10;4.90;;;;;;;18.96;44.49;99949.45;107426;1254;60364;-41
2023/10/02 10:49:10;;;;;;;10.90;5.50;;;;;;;18.88;44.66;99947.61;107442;1254;60553;-41
2023/10/02 10:51:38;;;;;;;8.50;4.80;;;;;;;18.82;44.33;99948.59;107421;1254;73834;-41
2023/10/02 10:54:18;;;;;;;8.70;4.60;;;;;;;18.83;45.13;99945.60;107450;1254;67187;-41
2023/10/02 10:57:27;;;;;;;9.20;4.80;;;;;;;18.93;45.06;99942.25;107438;1254;72668;-41
2023/10/02 11:00:24;;;;;;;9.00;4.80;;;;;;;19.06;45.11;99939.89;107433;1254;60550;-41
2023/10/02 11:03:00;;;;;;;11.00;5.00;;;;;;;19.28;44.88;99940.23;107436;1254;60127;-41
2023/10/02 11:05:33;;;;;;;9.90;5.60;;;;;;;19.41;43.85;99944.98;107435;1254;73875;-41
2023/10/02 11:08:23;;;;;;;10.90;5.00;;;;;;;19.41;43.53;99942.09;107440;1253;67672;-41
2023/10/02 11:11:11;;;;;;;9.40;5.00;;;;;;;19.47;43.90;99941.35;107460;1253;72693;-41
2023/10/02 11:13:54;;;;;;;10.20;5.60;;;;;;;19.66;44.16;99940.17;107448;1254;60352;-41
2023/10/02 11:16:36;;;;;;;12.80;5.90;;;;;;;19.86;43.45;99942.75;107446;1254;60454;-41
2023/10/02 11:22:14;;;;;;;12.70;5.70;;;;;;;19.98;43.53;99942.47;107453;1254;66773;-42
2023/10/02 11:24:53;;;;;;;14.70;6.60;;;;;;;20.03;43.00;99948.55;107483;1256;72715;-41
2023/10/02 11:27:22;;;;;;;13.00;7.00;;;;;;;20.14;42.67;99949.52;107464;1254;60571;-41
2023/10/02 11:30:01;;;;;;;12.40;6.40;;;;;;;20.29;42.44;99944.52;107496;1256;60326;-42
2023/10/02 11:32:48;;;;;;;14.50;7.00;;;;;;;20.41;42.45;99939.52;107482;1259;73851;-41
2023/10/02 11:35:16;;;;;;;15.00;8.30;;;;;;;20.44;42.32;99943.34;107483;1254;67551;-41
2023/10/02 11:37:48;;;;;;;14.50;7.50;;;;;;;20.35;41.26;99939.42;107436;1253;73254;-41
2023/10/02 11:40:16;;;;;;;15.00;7.50;;;;;;;20.21;42.21;99941.52;107470;1257;60335;-41
2023/10/02 11:42:43;;;;;;;14.10;7.10;;;;;;;20.10;42.64;99940.55;107477;1254;60380;-41
2023/10/02 11:45:11;;;;;;;13.60;7.00;;;;;;;20.04;42.67;99945.08;107469;1254;73844;-41
2023/10/02 11:47:39;;;;;;;12.40;6.50;;;;;;;20.08;42.81;99944.73;107470;1253;67737;-41
2023/10/02 11:50:07;;;;;;;14.30;7.30;;;;;;;20.29;41.91;99941.77;107438;1254;72676;-42
2023/10/02 11:52:35;;;;;;;15.20;7.90;;;;;;;20.48;41.71;99939.91;107515;1253;60341;-41
2023/10/02 11:55:03;;;;;;;14.60;7.30;;;;;;;20.75;41.95;99942.39;107469;1254;60019;-41
2023/10/02 11:57:33;;;;;;;15.30;8.00;;;;;;;21.15;40.67;99943.05;107526;1253;72592;-42
2023/10/02 12:00:08;;;;;;;;;;;;;;;21.58;39.54;99942.36;107514;1253;67610;-42
2023/10/02 12:02:45;;;;;;;15.20;8.00;;;;;;;21.99;38.96;99937.17;107491;1253;72191;-42
2023/10/02 12:05:12;;;;;;;14.70;7.80;;;;;;;22.42;38.94;99942.83;107542;1257;60091;-41
2023/10/02 12:10:30;;;;;;;16.90;9.50;;;;;;;22.48;36.43;99952.81;104318;1290;601615;-40
2023/10/02 12:13:01;;;;;;;18.10;9.30;;;;;;;22.47;37.22;99948.66;106604;1267;59575;-40
2023/10/02 12:15:29;;;;;;;16.90;8.80;;;;;;;22.75;36.46;99945.95;106690;1267;59144;-40
2023/10/02 12:17:57;;;;;;;17.10;8.70;;;;;;;23.13;35.44;99945.59;106829;1264;71102;-40
2023/10/02 12:20:25;;;;;;;16.30;8.60;;;;;;;23.34;34.74;99938.14;106798;1264;66763;-41
2023/10/02 12:22:53;;;;;;;12.70;8.00;;;;;;;23.48;34.94;99937.11;106848;1264;72716;-41
2023/10/02 12:25:21;;;;;;;20.60;8.50;;;;;;;23.65;35.05;99937.98;106894;1261;60407;-41
2023/10/02 12:27:50;;;;;;;14.40;8.10;;;;;;;23.70;35.01;99936.80;107005;1261;59444;-41
2023/10/02 12:30:17;;;;;;;16.50;9.00;;;;;;;23.76;34.57;99936.02;106969;1260;73255;-41
2023/10/02 12:32:49;;;;;;;16.00;8.90;;;;;;;23.90;34.04;99934.09;106937;1266;68087;-41
2023/10/02 12:35:18;;;;;;;16.80;8.40;;;;;;;24.14;34.10;99935.98;107006;1261;72693;-41
2023/10/02 12:37:45;;;;;;;13.90;7.50;;;;;;;24.58;33.65;99929.92;107031;1261;60061;-41
2023/10/02 12:40:18;;;;;;;13.20;7.10;;;;;;;25.09;33.69;99938.08;106914;1260;60984;-41
2023/10/02 12:42:46;;;;;;;12.30;7.10;;;;;;;25.58;32.85;99940.87;106959;1264;73986;-41
2023/10/02 12:45:14;;;;;;;18.10;8.40;;;;;;;25.94;31.65;99938.48;106923;1261;67644;-41
2023/10/02 12:47:41;;;;;;;14.50;8.70;;;;;;;26.15;31.66;99939.23;106922;1261;72713;-41
2023/10/02 12:50:10;;;;;;;15.20;8.70;;;;;;;26.51;31.10;99937.30;106989;1261;60068;-41
2023/10/02 12:52:39;;;;;;;17.20;8.90;;;;;;;26.76;29.93;99939.46;107020;1266;62389;-41
2023/10/02 12:55:09;;;;;;;14.80;8.50;;;;;;;26.72;29.20;99938.98;107064;1261;73054;-41
2023/10/02 12:57:37;;;;;;;13.50;7.90;;;;;;;26.61;29.44;99942.99;107000;1267;67593;-41
2023/10/02 13:00:17;;;;;;;15.40;8.10;;;;;;;26.31;29.83;99940.20;107004;1261;72707;-41